»·PEaware :: N520MP KVNY-KMRY

N520MP :: KVNY-KMRY

FLIGHT INFORMATION

Flight Status: Arrived
Operator: Privately registered:
United States
More flights under this callsign
Pilot: Manuel P. (9695)
Aircraft: CANADAIR CL-600 CRJ-200
(CRJ2)
More flights by this aircraft type
Origin: KVNY Van Nuys
United States
Destination: KMRY Monterey Peninsula
United States
More flights between these airports :: More routes between these airports
Route: WLKKR1 COREZ MAKRS WIGGL
File this flight plan on PilotEdge
Remarks: First flight on this plane
Altitude:
(Current/Filed)
28,000ft
Speed:
(Current/Filed)
400kts
Departed: 16-Aug-17 09:38 AM
Arrived: 16-Aug-17 10:25 AM
Distance/Time
Traveled:
218nm/0:46
Distance/Time
To Go:
Arrived

Flight Plot

Page will automatically refresh every two minutes.

Flight plan parsing failed; only flown route is shown


Map Options




Map Legend


Flown Route
Filed Route
Departure Airport
Arrival Airport
Navaid (VOR, NDB)
Fix

Horizontal Profiles

Position Reports

Time Latitude Longitude Heading Altitude Ground
Speed
16-Aug-17 09:14 34.209528 -118.487365 137 806ft 0kts
16-Aug-17 09:15 34.209528 -118.487365 137 806ft 0kts
16-Aug-17 09:16 34.209528 -118.487365 137 806ft 0kts
16-Aug-17 09:17 34.209528 -118.487365 137 806ft 0kts
16-Aug-17 09:18 34.209528 -118.487365 137 806ft 0kts
16-Aug-17 09:19 34.209528 -118.487365 137 806ft 0kts
16-Aug-17 09:20 34.209528 -118.487365 137 806ft 0kts
16-Aug-17 09:21 34.209528 -118.487365 137 806ft 0kts
16-Aug-17 09:22 34.209528 -118.487365 137 806ft 0kts
16-Aug-17 09:23 34.209528 -118.487365 137 806ft 0kts
16-Aug-17 09:24 34.209528 -118.487365 137 806ft 0kts
16-Aug-17 09:25 34.209528 -118.487365 137 806ft 0kts
16-Aug-17 09:26 34.209528 -118.487365 137 806ft 0kts
16-Aug-17 09:27 34.209528 -118.487365 137 806ft 0kts
16-Aug-17 09:28 34.209528 -118.487365 137 806ft 0kts
16-Aug-17 09:29 34.209528 -118.487365 137 806ft 0kts
16-Aug-17 09:30 34.209528 -118.487365 137 806ft 0kts
16-Aug-17 09:31 34.209528 -118.487365 137 806ft 0kts
16-Aug-17 09:32 34.209528 -118.487365 137 806ft 0kts
16-Aug-17 09:33 34.209528 -118.487365 137 806ft 0kts
16-Aug-17 09:34 34.209528 -118.487365 137 806ft 0kts
16-Aug-17 09:35 34.209484 -118.487333 156 806ft 1kts
16-Aug-17 09:36 34.210225 -118.487852 312 806ft 4kts
16-Aug-17 09:37 34.211579 -118.488503 356 806ft 10kts
16-Aug-17 09:38 34.215660 -118.488940 348 806ft 15kts
16-Aug-17 09:39 34.218512 -118.489470 354 806ft 0kts
16-Aug-17 09:40 34.218512 -118.489470 354 806ft 0kts
16-Aug-17 09:41 34.218895 -118.490084 270 806ft 10kts
16-Aug-17 09:42 34.208745 -118.490395 175 807ft 149kts
16-Aug-17 09:43 34.165216 -118.515197 222 2518ft 174kts
16-Aug-17 09:44 34.130054 -118.556234 222 4403ft 240kts
16-Aug-17 09:45 34.113557 -118.649848 297 7028ft 310kts
16-Aug-17 09:46 34.177776 -118.679995 356 8446ft 228kts
16-Aug-17 09:47 34.231353 -118.676778 9 9699ft 161kts
16-Aug-17 09:48 34.292731 -118.662730 8 10993ft 302kts
16-Aug-17 09:49 34.394125 -118.653557 339 12666ft 400kts
16-Aug-17 09:50 34.489460 -118.714675 327 14363ft 381kts
16-Aug-17 09:51 34.572725 -118.791643 322 16058ft 375kts
16-Aug-17 09:52 34.660967 -118.859259 328 17763ft 381kts
16-Aug-17 09:53 34.752779 -118.920194 328 20822ft 374kts
16-Aug-17 09:54 34.844620 -118.982907 328 22862ft 387kts
16-Aug-17 09:55 34.940750 -119.050941 327 24745ft 399kts
16-Aug-17 09:56 35.036646 -119.118804 327 26601ft 406kts
16-Aug-17 09:57 35.136121 -119.189402 327 28023ft 435kts
16-Aug-17 09:58 35.244042 -119.266615 327 28224ft 454kts
16-Aug-17 09:59 35.352781 -119.344572 327 28218ft 454kts
16-Aug-17 10:00 35.461425 -119.422535 327 28208ft 453kts
16-Aug-17 10:01 35.554339 -119.520010 292 28137ft 446kts
16-Aug-17 10:02 35.583363 -119.667191 282 28336ft 448kts
16-Aug-17 10:03 35.606373 -119.816235 281 28029ft 441kts
16-Aug-17 10:04 35.626612 -119.957845 281 26278ft 407kts
16-Aug-17 10:05 35.642361 -120.091066 281 24260ft 387kts
16-Aug-17 10:06 35.658097 -120.216743 283 24026ft 376kts
16-Aug-17 10:07 35.685960 -120.341624 310 24047ft 384kts
16-Aug-17 10:07 35.742941 -120.425225 310 23474ft 375kts
16-Aug-17 10:08 35.806915 -120.522739 311 21196ft 361kts
16-Aug-17 10:10 35.886721 -120.629127 315 18007ft 370kts
16-Aug-17 10:10 35.946500 -120.701991 314 15515ft 383kts
16-Aug-17 10:11 36.020710 -120.798153 310 12457ft 400kts
16-Aug-17 10:12 36.090235 -120.903015 310 10068ft 380kts
16-Aug-17 10:14 36.159815 -121.001328 315 9975ft 357kts
16-Aug-17 10:14 36.215756 -121.077528 313 9969ft 358kts
16-Aug-17 10:15 36.273627 -121.157237 313 9176ft 272kts
16-Aug-17 10:16 36.324340 -121.226897 311 7176ft 277kts
16-Aug-17 10:17 36.373805 -121.300819 309 5965ft 262kts
16-Aug-17 10:18 36.414754 -121.363383 311 5952ft 208kts
16-Aug-17 10:19 36.445145 -121.429378 326 5266ft 224kts
16-Aug-17 10:20 36.469672 -121.490019 289 5122ft 201kts
16-Aug-17 10:21 36.489857 -121.556775 292 4610ft 188kts
16-Aug-17 10:22 36.507294 -121.609038 292 4591ft 141kts
16-Aug-17 10:23 36.524352 -121.658756 294 3750ft 166kts
16-Aug-17 10:24 36.542447 -121.710020 294 2246ft 151kts
16-Aug-17 10:25 36.558080 -121.754127 292 1673ft 131kts
16-Aug-17 10:26 36.571167 -121.797276 293 916ft 134kts
16-Aug-17 10:27 36.585336 -121.839529 292 262ft 122kts
16-Aug-17 10:28 36.589842 -121.853733 244 261ft 7kts
16-Aug-17 10:29 36.589198 -121.854078 204 261ft 7kts
16-Aug-17 10:30 36.588935 -121.854472 257 261ft 0kts
16-Aug-17 10:31 36.588935 -121.854472 257 261ft 0kts
16-Aug-17 10:32 36.588935 -121.854472 257 261ft 0kts
16-Aug-17 10:33 36.588935 -121.854472 257 261ft 0kts
16-Aug-17 10:34 36.588935 -121.854472 257 261ft 0kts
16-Aug-17 10:35 36.567593 -121.786476 290 1155ft 133kts
16-Aug-17 10:36 36.581711 -121.828749 292 363ft 134kts
16-Aug-17 10:37 36.589913 -121.853209 276 261ft 3kts
16-Aug-17 10:38 36.588935 -121.854472 257 261ft 0kts
16-Aug-17 10:39 36.588935 -121.854472 257 261ft 0kts

Navigation Log

Ident Type
Flight plan parsing failed, navigation log unavailable